Time;durP1;ratioP1;P1;durP2;ratioP2;P2;SDS_P1;SDS_P2;PMS_P1;PMS_P2;Temp;Humidity;BMP_temperature;BMP_pressure;BME280_temperature;BME280_humidity;BME280_pressure;Samples;Min_cycle;Max_cycle;Signal;HPM_P1;HPM_P2
2023/04/27 00:01:25;;;;;;;9.10;6.75;;;;;;;;;;5109509;28;20064;-62
2023/04/27 00:03:51;;;;;;;6.88;5.90;;;;;;;;;;5108474;28;20027;-63
2023/04/27 00:06:17;;;;;;;7.65;6.15;;;;;;;;;;5109102;28;20051;-62
2023/04/27 00:08:43;;;;;;;7.05;5.75;;;;;;;;;;5108086;28;20134;-66
2023/04/27 00:11:08;;;;;;;7.65;5.97;;;;;;;;;;5108901;27;20496;-68
2023/04/27 00:13:34;;;;;;;6.68;5.75;;;;;;;;;;5108847;28;20043;-62
2023/04/27 00:16:02;;;;;;;7.15;6.07;;;;;;;;;;5109555;28;20024;-64
2023/04/27 00:18:28;;;;;;;8.80;6.28;;;;;;;;;;5108419;28;20080;-66
2023/04/27 00:20:54;;;;;;;5.90;5.15;;;;;;;;;;5108004;28;20039;-61
2023/04/27 00:23:20;;;;;;;7.55;6.25;;;;;;;;;;5108538;28;20083;-63
2023/04/27 00:25:46;;;;;;;6.90;5.32;;;;;;;;;;5108868;28;20023;-63
2023/04/27 00:28:12;;;;;;;6.78;6.03;;;;;;;;;;5110995;27;20039;-75
2023/04/27 00:30:38;;;;;;;7.38;6.00;;;;;;;;;;5108862;28;20081;-61
2023/04/27 00:33:07;;;;;;;7.13;5.85;;;;;;;;;;5107869;28;20028;-60
2023/04/27 00:35:33;;;;;;;5.93;5.25;;;;;;;;;;5108010;28;20027;-63
2023/04/27 00:37:59;;;;;;;7.10;5.63;;;;;;;;;;5109439;28;20016;-64
2023/04/27 00:40:25;;;;;;;7.15;6.10;;;;;;;;;;5108427;28;20023;-60
2023/04/27 00:42:51;;;;;;;7.00;5.40;;;;;;;;;;5106045;28;20020;-61
2023/04/27 00:45:17;;;;;;;9.90;6.32;;;;;;;;;;5108569;28;20132;-67
2023/04/27 00:47:43;;;;;;;6.70;5.50;;;;;;;;;;5107048;28;20063;-60
2023/04/27 00:50:10;;;;;;;6.55;5.88;;;;;;;;;;5108143;28;20547;-60
2023/04/27 00:52:37;;;;;;;6.55;5.40;;;;;;;;;;5107315;28;20019;-63
2023/04/27 00:55:03;;;;;;;6.72;5.53;;;;;;;;;;5107417;28;20070;-64
2023/04/27 00:57:29;;;;;;;6.82;5.80;;;;;;;;;;5110528;28;20026;-63
2023/04/27 00:59:55;;;;;;;6.88;5.82;;;;;;;;;;5108957;28;20114;-62
2023/04/27 01:02:22;;;;;;;7.03;5.38;;;;;;;;;;5108519;28;20134;-60
2023/04/27 01:04:49;;;;;;;6.70;5.50;;;;;;;;;;5107746;28;20031;-62
2023/04/27 01:07:15;;;;;;;7.40;5.97;;;;;;;;;;5108060;28;20070;-64
2023/04/27 01:09:41;;;;;;;7.78;5.32;;;;;;;;;;5105938;28;20038;-63
2023/04/27 01:12:07;;;;;;;7.00;5.88;;;;;;;;;;5107417;28;20027;-62
2023/04/27 01:14:35;;;;;;;7.28;5.97;;;;;;;;;;5107807;28;20039;-60
2023/04/27 01:17:01;;;;;;;7.43;6.32;;;;;;;;;;5106697;28;20044;-60
2023/04/27 01:19:27;;;;;;;7.18;5.85;;;;;;;;;;5107484;28;20471;-61
2023/04/27 01:21:53;;;;;;;6.30;5.38;;;;;;;;;;5107456;28;20038;-62
2023/04/27 01:24:20;;;;;;;6.90;5.65;;;;;;;;;;5107191;28;20078;-62
2023/04/27 01:26:46;;;;;;;6.68;5.47;;;;;;;;;;5108272;28;20139;-61
2023/04/27 01:29:12;;;;;;;7.22;5.65;;;;;;;;;;5109495;28;20039;-74
2023/04/27 01:31:38;;;;;;;7.00;5.57;;;;;;;;;;5107455;28;20180;-62
2023/04/27 01:34:04;;;;;;;7.60;6.15;;;;;;;;;;5106442;28;20571;-63
2023/04/27 01:36:31;;;;;;;6.50;5.47;;;;;;;;;;5108035;28;20032;-68
2023/04/27 01:38:57;;;;;;;8.43;5.10;;;;;;;;;;5108331;28;20028;-65
2023/04/27 01:41:23;;;;;;;6.97;5.63;;;;;;;;;;5108090;28;20583;-63
2023/04/27 01:43:49;;;;;;;6.53;5.18;;;;;;;;;;5107140;28;20055;-62
2023/04/27 01:46:15;;;;;;;6.70;5.15;;;;;;;;;;5107861;28;20403;-62
2023/04/27 01:48:41;;;;;;;8.38;5.95;;;;;;;;;;5106546;28;20028;-70
2023/04/27 01:51:07;;;;;;;7.00;5.53;;;;;;;;;;5106820;28;20115;-66
2023/04/27 01:53:33;;;;;;;7.88;5.90;;;;;;;;;;5107253;28;20027;-62
2023/04/27 01:55:59;;;;;;;8.57;6.25;;;;;;;;;;5108349;28;20102;-62
2023/04/27 01:58:26;;;;;;;5.88;5.18;;;;;;;;;;5110291;28;20019;-62
2023/04/27 02:00:52;;;;;;;6.55;5.55;;;;;;;;;;5110812;28;20031;-62
2023/04/27 02:03:18;;;;;;;7.32;6.22;;;;;;;;;;5109891;28;20382;-62
2023/04/27 02:05:45;;;;;;;5.70;5.15;;;;;;;;;;5110105;28;20103;-62
2023/04/27 02:08:11;;;;;;;6.82;5.40;;;;;;;;;;5106303;28;20479;-63
2023/04/27 02:10:37;;;;;;;6.82;5.70;;;;;;;;;;5108999;28;20494;-63
2023/04/27 02:13:03;;;;;;;8.57;6.25;;;;;;;;;;5106519;28;20562;-66
2023/04/27 02:15:29;;;;;;;6.63;5.78;;;;;;;;;;5107893;28;20066;-66
2023/04/27 02:17:56;;;;;;;6.68;5.68;;;;;;;;;;5108632;28;20034;-66
2023/04/27 02:20:22;;;;;;;6.65;5.72;;;;;;;;;;5106701;28;20028;-62
2023/04/27 02:22:48;;;;;;;7.25;5.07;;;;;;;;;;5106941;28;20034;-62
2023/04/27 02:25:14;;;;;;;10.25;6.30;;;;;;;;;;5108817;28;20031;-62
2023/04/27 02:27:40;;;;;;;6.30;5.40;;;;;;;;;;5106419;28;20051;-63
2023/04/27 02:30:07;;;;;;;7.60;5.80;;;;;;;;;;5108145;28;20027;-61
2023/04/27 02:32:33;;;;;;;5.93;5.32;;;;;;;;;;5107863;28;20016;-61
2023/04/27 02:35:00;;;;;;;6.50;5.75;;;;;;;;;;5106707;28;21271;-65
2023/04/27 02:37:26;;;;;;;6.70;5.28;;;;;;;;;;5108628;28;20072;-65
2023/04/27 02:39:52;;;;;;;5.88;5.15;;;;;;;;;;5108107;28;20455;-62
2023/04/27 02:42:18;;;;;;;6.30;5.43;;;;;;;;;;5106327;28;20031;-68
2023/04/27 02:44:44;;;;;;;6.93;5.53;;;;;;;;;;5110085;28;20504;-63
2023/04/27 02:47:10;;;;;;;5.68;5.07;;;;;;;;;;5111906;28;20042;-67
2023/04/27 02:49:36;;;;;;;5.85;4.55;;;;;;;;;;5109847;28;20036;-66
2023/04/27 02:52:03;;;;;;;5.72;4.63;;;;;;;;;;5112089;28;20031;-62
2023/04/27 02:54:29;;;;;;;5.28;4.63;;;;;;;;;;5111175;28;20032;-66
2023/04/27 02:56:55;;;;;;;5.22;4.72;;;;;;;;;;5110146;28;20141;-62
2023/04/27 02:59:21;;;;;;;6.07;5.47;;;;;;;;;;5112722;28;20036;-61
2023/04/27 03:01:47;;;;;;;5.72;5.03;;;;;;;;;;5110186;28;20035;-63
2023/04/27 03:04:13;;;;;;;6.32;5.32;;;;;;;;;;5112101;28;20372;-63
2023/04/27 03:06:43;;;;;;;6.25;5.18;;;;;;;;;;5112076;28;20468;-68
2023/04/27 03:09:09;;;;;;;6.18;5.03;;;;;;;;;;5109717;28;20040;-62
2023/04/27 03:11:36;;;;;;;6.15;4.88;;;;;;;;;;5110018;28;20050;-65
2023/04/27 03:14:02;;;;;;;5.93;4.63;;;;;;;;;;5110117;28;20031;-62
2023/04/27 03:16:28;;;;;;;5.65;4.57;;;;;;;;;;5110294;28;20396;-69
2023/04/27 03:18:54;;;;;;;7.07;4.97;;;;;;;;;;5110011;28;20023;-64
2023/04/27 03:21:20;;;;;;;6.10;4.65;;;;;;;;;;5109739;28;20036;-68
2023/04/27 03:23:46;;;;;;;6.40;4.72;;;;;;;;;;5109193;28;20110;-61
2023/04/27 03:26:13;;;;;;;5.25;4.47;;;;;;;;;;5109843;28;20372;-61
2023/04/27 03:28:39;;;;;;;5.57;4.78;;;;;;;;;;5109156;28;20038;-61
2023/04/27 03:31:06;;;;;;;5.97;4.63;;;;;;;;;;5109247;28;20031;-61
2023/04/27 03:33:32;;;;;;;4.65;4.20;;;;;;;;;;5110391;28;20096;-64
2023/04/27 03:35:58;;;;;;;6.80;4.60;;;;;;;;;;5111597;28;20483;-64
2023/04/27 03:38:25;;;;;;;6.57;4.22;;;;;;;;;;5110700;28;20031;-69
2023/04/27 03:40:51;;;;;;;4.95;4.43;;;;;;;;;;5109798;28;20384;-64
2023/04/27 03:43:18;;;;;;;5.88;4.18;;;;;;;;;;5109094;28;20026;-65
2023/04/27 03:45:43;;;;;;;4.63;4.03;;;;;;;;;;5109653;28;20100;-70
2023/04/27 03:48:09;;;;;;;5.28;4.70;;;;;;;;;;5109175;28;20122;-63
2023/04/27 03:50:35;;;;;;;6.07;3.92;;;;;;;;;;5108636;28;20039;-68
2023/04/27 03:53:02;;;;;;;5.90;4.20;;;;;;;;;;5109708;28;20440;-65
2023/04/27 03:55:28;;;;;;;5.72;4.10;;;;;;;;;;5108803;28;20392;-71
2023/04/27 03:57:54;;;;;;;4.95;4.00;;;;;;;;;;5110444;28;20057;-70
2023/04/27 04:00:20;;;;;;;4.72;4.20;;;;;;;;;;5108839;28;20027;-63
2023/04/27 04:02:46;;;;;;;4.70;3.95;;;;;;;;;;5107733;28;20443;-61
2023/04/27 04:05:13;;;;;;;4.18;3.55;;;;;;;;;;5110116;28;20060;-62
2023/04/27 04:07:42;;;;;;;5.80;4.03;;;;;;;;;;5108436;28;20031;-64
2023/04/27 04:10:09;;;;;;;4.72;4.00;;;;;;;;;;5108627;28;20035;-68
2023/04/27 04:12:35;;;;;;;5.70;4.03;;;;;;;;;;5108386;28;20029;-61
2023/04/27 04:15:01;;;;;;;5.15;4.15;;;;;;;;;;5109436;28;20103;-62
2023/04/27 04:17:27;;;;;;;5.50;3.75;;;;;;;;;;5108412;28;20023;-61
2023/04/27 04:19:53;;;;;;;4.93;4.00;;;;;;;;;;5108210;28;20038;-61
2023/04/27 04:22:18;;;;;;;4.43;3.80;;;;;;;;;;5107577;28;20027;-67
2023/04/27 04:24:45;;;;;;;4.55;3.83;;;;;;;;;;5108111;28;20023;-61
2023/04/27 04:27:11;;;;;;;4.72;3.75;;;;;;;;;;5110123;27;20039;-61
2023/04/27 04:29:37;;;;;;;3.78;3.35;;;;;;;;;;5109014;28;20032;-62
2023/04/27 04:32:04;;;;;;;4.40;3.65;;;;;;;;;;5108771;28;20020;-62
2023/04/27 04:34:30;;;;;;;5.25;3.83;;;;;;;;;;5108301;28;20422;-61
2023/04/27 04:36:56;;;;;;;4.68;3.95;;;;;;;;;;5109317;28;20511;-63
2023/04/27 04:39:23;;;;;;;4.47;3.55;;;;;;;;;;5108542;28;20042;-62
2023/04/27 04:41:49;;;;;;;6.05;3.67;;;;;;;;;;5108852;28;20023;-68
2023/04/27 04:44:15;;;;;;;5.25;3.63;;;;;;;;;;5107313;28;20031;-61
2023/04/27 04:46:42;;;;;;;7.03;3.60;;;;;;;;;;5107998;28;20020;-67
2023/04/27 04:49:08;;;;;;;4.25;3.33;;;;;;;;;;5107990;28;20165;-61
2023/04/27 04:51:34;;;;;;;3.53;3.20;;;;;;;;;;5107729;28;20039;-67
2023/04/27 04:54:00;;;;;;;5.82;3.88;;;;;;;;;;5108537;28;20128;-62
2023/04/27 04:56:26;;;;;;;4.07;3.28;;;;;;;;;;5108897;28;20035;-61
2023/04/27 04:58:52;;;;;;;4.70;3.50;;;;;;;;;;5108442;27;20027;-61
2023/04/27 05:01:18;;;;;;;3.97;3.35;;;;;;;;;;5108589;28;20077;-62
2023/04/27 05:03:44;;;;;;;5.13;3.30;;;;;;;;;;5107276;28;20068;-66
2023/04/27 05:06:10;;;;;;;4.30;3.00;;;;;;;;;;5109355;28;20030;-67
2023/04/27 05:08:36;;;;;;;4.18;3.22;;;;;;;;;;5107069;28;20051;-61
2023/04/27 05:11:02;;;;;;;5.28;3.30;;;;;;;;;;5109210;28;20097;-67
2023/04/27 05:13:28;;;;;;;5.97;3.60;;;;;;;;;;5107709;28;20043;-61
2023/04/27 05:15:54;;;;;;;4.43;3.28;;;;;;;;;;5107918;28;20015;-63
2023/04/27 05:18:20;;;;;;;4.53;3.13;;;;;;;;;;5107846;28;20028;-61
2023/04/27 05:20:46;;;;;;;4.40;3.55;;;;;;;;;;5106930;28;20042;-61
2023/04/27 05:23:12;;;;;;;4.70;3.42;;;;;;;;;;5110092;28;20135;-61
2023/04/27 05:25:41;;;;;;;3.83;3.28;;;;;;;;;;5111401;28;20023;-61
2023/04/27 05:28:07;;;;;;;4.15;3.53;;;;;;;;;;5111642;28;20487;-62
2023/04/27 05:30:34;;;;;;;4.88;3.60;;;;;;;;;;5111649;28;20028;-63
2023/04/27 05:33:00;;;;;;;4.35;3.13;;;;;;;;;;5112225;28;20020;-63
2023/04/27 05:35:26;;;;;;;3.92;2.70;;;;;;;;;;5111877;28;20468;-64
2023/04/27 05:37:52;;;;;;;4.50;2.70;;;;;;;;;;5111289;28;20064;-61
2023/04/27 05:40:18;;;;;;;4.28;3.13;;;;;;;;;;5107615;28;20069;-66
2023/04/27 05:42:47;;;;;;;4.07;2.83;;;;;;;;;;5106935;28;20031;-61
2023/04/27 05:45:13;;;;;;;5.22;3.55;;;;;;;;;;5107498;28;20039;-63
2023/04/27 05:47:39;;;;;;;4.85;3.20;;;;;;;;;;5107058;28;20020;-63
2023/04/27 05:50:05;;;;;;;3.92;3.38;;;;;;;;;;5107667;28;20498;-61
2023/04/27 05:52:31;;;;;;;3.63;3.08;;;;;;;;;;5107809;28;20024;-61
2023/04/27 05:54:58;;;;;;;3.65;3.15;;;;;;;;;;5107644;28;20031;-63
2023/04/27 05:57:24;;;;;;;4.25;3.45;;;;;;;;;;5109285;28;20117;-69
2023/04/27 05:59:50;;;;;;;5.47;3.85;;;;;;;;;;5107395;28;20387;-68
2023/04/27 06:02:16;;;;;;;4.18;3.15;;;;;;;;;;5107880;28;20586;-61
2023/04/27 06:04:42;;;;;;;4.00;3.40;;;;;;;;;;5107419;28;20114;-78
2023/04/27 06:07:09;;;;;;;5.03;2.85;;;;;;;;;;5108172;28;20108;-64
2023/04/27 06:09:36;;;;;;;3.55;3.05;;;;;;;;;;5107159;28;20063;-69
2023/04/27 06:12:03;;;;;;;5.30;3.60;;;;;;;;;;5108496;28;20028;-61
2023/04/27 06:14:29;;;;;;;5.07;3.47;;;;;;;;;;5107830;28;20040;-62
2023/04/27 06:16:55;;;;;;;4.40;3.28;;;;;;;;;;5108145;28;20103;-69
2023/04/27 06:19:21;;;;;;;5.35;3.40;;;;;;;;;;5109312;28;20098;-61
2023/04/27 06:21:47;;;;;;;4.75;3.33;;;;;;;;;;5111870;27;20035;-66
2023/04/27 06:24:13;;;;;;;4.88;3.40;;;;;;;;;;5111878;28;20464;-71
2023/04/27 06:26:39;;;;;;;4.05;3.40;;;;;;;;;;5112662;28;20110;-65
2023/04/27 06:29:06;;;;;;;3.83;2.78;;;;;;;;;;5111834;27;20115;-62
2023/04/27 06:31:32;;;;;;;6.43;3.13;;;;;;;;;;5112959;28;20059;-65
2023/04/27 06:33:59;;;;;;;4.78;2.92;;;;;;;;;;5112196;28;20607;-62
2023/04/27 06:36:28;;;;;;;3.63;2.78;;;;;;;;;;5110411;28;20034;-63
2023/04/27 06:38:55;;;;;;;5.68;3.33;;;;;;;;;;5113392;28;20027;-62
2023/04/27 06:41:21;;;;;;;4.78;3.20;;;;;;;;;;5111207;28;20033;-61
2023/04/27 06:43:47;;;;;;;4.32;2.80;;;;;;;;;;5110328;28;20039;-62
2023/04/27 06:46:14;;;;;;;5.90;3.83;;;;;;;;;;5110648;28;20421;-61
2023/04/27 06:48:40;;;;;;;5.55;3.55;;;;;;;;;;5110364;28;20128;-60
2023/04/27 06:51:06;;;;;;;3.53;3.05;;;;;;;;;;5110816;27;20092;-61
2023/04/27 06:53:32;;;;;;;3.58;2.70;;;;;;;;;;5110341;28;20449;-62
2023/04/27 06:55:58;;;;;;;4.07;2.90;;;;;;;;;;5112009;28;20077;-60
2023/04/27 06:58:25;;;;;;;7.18;3.17;;;;;;;;;;5111607;28;20027;-60
2023/04/27 07:00:52;;;;;;;5.93;3.50;;;;;;;;;;5109495;28;20015;-61
2023/04/27 07:03:18;;;;;;;3.92;3.20;;;;;;;;;;5110319;28;20074;-60
2023/04/27 07:05:44;;;;;;;5.85;3.70;;;;;;;;;;5110251;28;20495;-63
2023/04/27 07:08:10;;;;;;;5.05;3.00;;;;;;;;;;5110827;28;20028;-62
2023/04/27 07:10:36;;;;;;;8.93;3.35;;;;;;;;;;5109014;28;20092;-63
2023/04/27 07:13:02;;;;;;;3.85;2.72;;;;;;;;;;5110468;28;20027;-60
2023/04/27 07:15:28;;;;;;;4.75;3.15;;;;;;;;;;5111175;28;20027;-60
2023/04/27 07:17:54;;;;;;;4.50;3.08;;;;;;;;;;5112933;28;20435;-61
2023/04/27 07:20:20;;;;;;;5.65;4.03;;;;;;;;;;5113693;28;20031;-61
2023/04/27 07:22:46;;;;;;;6.85;3.30;;;;;;;;;;5113887;28;20020;-60
2023/04/27 07:25:12;;;;;;;6.47;3.63;;;;;;;;;;5114380;28;20046;-63
2023/04/27 07:27:40;;;;;;;5.50;3.35;;;;;;;;;;5112543;28;20031;-60
2023/04/27 07:30:08;;;;;;;10.77;4.50;;;;;;;;;;5112938;28;20110;-62
2023/04/27 07:32:34;;;;;;;8.85;4.18;;;;;;;;;;5112740;28;20089;-60
2023/04/27 07:35:00;;;;;;;7.68;4.40;;;;;;;;;;5113625;28;20031;-60
2023/04/27 07:37:27;;;;;;;9.75;4.40;;;;;;;;;;5113137;28;20378;-60
2023/04/27 07:39:53;;;;;;;11.55;4.53;;;;;;;;;;5113351;28;20046;-60
2023/04/27 07:42:21;;;;;;;9.10;4.13;;;;;;;;;;5113770;28;20023;-60
2023/04/27 07:44:49;;;;;;;10.52;5.78;;;;;;;;;;5113455;28;20059;-62
2023/04/27 07:47:17;;;;;;;10.57;5.03;;;;;;;;;;5112817;28;20023;-59
2023/04/27 07:49:45;;;;;;;10.40;4.97;;;;;;;;;;5112542;28;20050;-67
2023/04/27 07:52:11;;;;;;;9.77;4.63;;;;;;;;;;5112690;28;20360;-60
2023/04/27 07:54:37;;;;;;;13.18;5.47;;;;;;;;;;5113295;28;20061;-60
2023/04/27 07:57:10;;;;;;;19.35;6.60;;;;;;;;;;5112562;28;20031;-60
2023/04/27 07:59:36;;;;;;;15.68;6.35;;;;;;;;;;5111278;28;20032;-78
2023/04/27 08:02:02;;;;;;;16.80;6.80;;;;;;;;;;5110863;27;20051;-59
2023/04/27 08:04:28;;;;;;;16.73;6.90;;;;;;;;;;5112071;28;20020;-60
2023/04/27 08:06:55;;;;;;;16.95;6.78;;;;;;;;;;5114787;27;20031;-66
2023/04/27 08:09:21;;;;;;;15.48;6.50;;;;;;;;;;5111585;28;20027;-60
2023/04/27 08:11:47;;;;;;;18.58;7.65;;;;;;;;;;5111362;28;20023;-60
2023/04/27 08:14:13;;;;;;;17.95;7.55;;;;;;;;;;5111522;28;20034;-60
2023/04/27 08:16:42;;;;;;;18.55;7.38;;;;;;;;;;5111208;28;20027;-60
2023/04/27 08:19:08;;;;;;;21.27;7.03;;;;;;;;;;5111377;28;20026;-69
2023/04/27 08:21:35;;;;;;;18.98;7.90;;;;;;;;;;5111087;28;20032;-62
2023/04/27 08:24:01;;;;;;;17.33;6.90;;;;;;;;;;5111467;28;20023;-71
2023/04/27 08:26:27;;;;;;;18.05;7.97;;;;;;;;;;5111439;28;20043;-64
2023/04/27 08:28:55;;;;;;;15.95;7.53;;;;;;;;;;5110884;28;20850;-61
2023/04/27 08:31:21;;;;;;;16.08;7.88;;;;;;;;;;5110947;28;20380;-65
2023/04/27 08:33:47;;;;;;;19.02;7.78;;;;;;;;;;5111054;28;20494;-71
2023/04/27 08:36:14;;;;;;;14.27;7.82;;;;;;;;;;5111744;28;20020;-62
2023/04/27 08:38:40;;;;;;;19.27;8.90;;;;;;;;;;5112569;28;20024;-64
2023/04/27 08:41:06;;;;;;;22.42;8.27;;;;;;;;;;5112433;28;20065;-60
2023/04/27 08:43:34;;;;;;;21.30;8.43;;;;;;;;;;5125156;27;20070;-61
2023/04/27 08:46:00;;;;;;;15.55;7.95;;;;;;;;;;5119030;27;20570;-60
2023/04/27 08:48:26;;;;;;;19.55;8.77;;;;;;;;;;5110943;27;20103;-61
2023/04/27 08:50:52;;;;;;;19.23;9.25;;;;;;;;;;5109346;28;20115;-61
2023/04/27 08:53:19;;;;;;;26.10;8.45;;;;;;;;;;5110889;28;20131;-61
2023/04/27 08:55:45;;;;;;;20.08;8.85;;;;;;;;;;5110942;28;20039;-61
2023/04/27 08:58:11;;;;;;;22.08;10.43;;;;;;;;;;5111602;28;20433;-61
2023/04/27 09:00:39;;;;;;;16.33;7.43;;;;;;;;;;5111880;28;20070;-64
2023/04/27 09:03:05;;;;;;;22.02;8.02;;;;;;;;;;5113175;27;20058;-60
2023/04/27 09:05:31;;;;;;;20.92;7.78;;;;;;;;;;5119985;27;20483;-61
2023/04/27 09:08:06;;;;;;;22.60;8.48;;;;;;;;;;5111888;28;20468;-67
2023/04/27 09:10:51;;;;;;;18.50;7.43;;;;;;;;;;5112631;28;20395;-65
2023/04/27 09:13:17;;;;;;;16.23;6.72;;;;;;;;;;5111883;28;20023;-66
2023/04/27 09:15:44;;;;;;;13.13;7.32;;;;;;;;;;5111588;28;20026;-66
2023/04/27 09:18:23;;;;;;;21.40;7.63;;;;;;;;;;5111853;28;20032;-65
2023/04/27 09:20:50;;;;;;;19.52;7.60;;;;;;;;;;5111356;28;20417;-69
2023/04/27 09:23:26;;;;;;;18.05;7.53;;;;;;;;;;5111500;28;20107;-63
2023/04/27 09:25:54;;;;;;;15.70;7.18;;;;;;;;;;5110740;28;20043;-64
2023/04/27 09:28:21;;;;;;;17.30;7.00;;;;;;;;;;5111560;28;20429;-65
2023/04/27 09:30:57;;;;;;;15.02;7.28;;;;;;;;;;5111706;28;20028;-68
2023/04/27 09:33:23;;;;;;;18.52;7.32;;;;;;;;;;5111842;28;20034;-62
2023/04/27 09:35:49;;;;;;;15.73;7.65;;;;;;;;;;5110903;28;20031;-62
2023/04/27 09:38:16;;;;;;;20.27;8.10;;;;;;;;;;5111271;28;20067;-62
2023/04/27 09:40:42;;;;;;;19.48;6.82;;;;;;;;;;5110303;28;20023;-62
2023/04/27 09:43:08;;;;;;;21.15;7.43;;;;;;;;;;5111805;28;20027;-62
2023/04/27 09:45:34;;;;;;;20.55;7.03;;;;;;;;;;5110970;28;20024;-62
2023/04/27 09:48:01;;;;;;;20.95;7.07;;;;;;;;;;5111851;28;20391;-62
2023/04/27 09:50:27;;;;;;;17.88;6.90;;;;;;;;;;5111708;28;20023;-63
2023/04/27 09:52:53;;;;;;;18.17;7.30;;;;;;;;;;5111006;28;20035;-63
2023/04/27 09:55:23;;;;;;;18.15;5.90;;;;;;;;;;5111431;28;20028;-63
2023/04/27 09:57:55;;;;;;;16.65;7.28;;;;;;;;;;5109406;28;20027;-63
2023/04/27 10:00:30;;;;;;;14.85;7.10;;;;;;;;;;5110952;28;20050;-64
2023/04/27 10:03:15;;;;;;;15.73;6.80;;;;;;;;;;5111151;28;20379;-62
2023/04/27 10:06:00;;;;;;;16.65;6.25;;;;;;;;;;5111408;28;20027;-65
2023/04/27 10:08:26;;;;;;;14.40;6.28;;;;;;;;;;5111129;28;20045;-63
2023/04/27 10:10:53;;;;;;;13.07;6.13;;;;;;;;;;5110665;28;20059;-63
2023/04/27 10:13:23;;;;;;;23.05;6.82;;;;;;;;;;5111368;28;20031;-66
2023/04/27 10:15:50;;;;;;;19.73;6.70;;;;;;;;;;5110894;28;20097;-63
2023/04/27 10:18:26;;;;;;;12.60;5.55;;;;;;;;;;5111176;28;20079;-63
2023/04/27 10:20:52;;;;;;;13.07;5.82;;;;;;;;;;5109653;28;20046;-65
2023/04/27 10:23:27;;;;;;;13.32;5.95;;;;;;;;;;5110780;28;20095;-64
2023/04/27 10:25:54;;;;;;;16.85;5.97;;;;;;;;;;5110936;28;20148;-64
2023/04/27 10:28:20;;;;;;;13.40;6.25;;;;;;;;;;5110455;28;20418;-64
2023/04/27 10:30:47;;;;;;;14.55;5.50;;;;;;;;;;5111079;28;20024;-66
2023/04/27 10:33:17;;;;;;;15.10;6.03;;;;;;;;;;5110189;28;20111;-64
2023/04/27 10:35:45;;;;;;;13.40;6.82;;;;;;;;;;5110072;28;20031;-64
2023/04/27 10:38:26;;;;;;;12.77;5.15;;;;;;;;;;5109783;28;20088;-63
2023/04/27 10:40:56;;;;;;;15.40;5.88;;;;;;;;;;5109447;28;20115;-63
2023/04/27 10:43:26;;;;;;;11.82;5.95;;;;;;;;;;5111218;28;20110;-63
2023/04/27 10:45:52;;;;;;;10.25;5.40;;;;;;;;;;5108833;28;20024;-64
2023/04/27 10:48:18;;;;;;;13.18;6.45;;;;;;;;;;5109793;28;20142;-63
2023/04/27 10:50:45;;;;;;;15.32;5.97;;;;;;;;;;5110476;28;20550;-64
2023/04/27 10:53:12;;;;;;;14.15;5.93;;;;;;;;;;5111334;28;20032;-64
2023/04/27 10:55:38;;;;;;;12.70;6.00;;;;;;;;;;5110761;28;20403;-64
2023/04/27 10:58:04;;;;;;;11.43;4.72;;;;;;;;;;5110848;28;20030;-64
2023/04/27 11:00:31;;;;;;;13.63;5.53;;;;;;;;;;5111276;28;20016;-65
2023/04/27 11:03:09;;;;;;;14.68;5.68;;;;;;;;;;5110742;28;20558;-65
2023/04/27 11:05:35;;;;;;;11.38;4.95;;;;;;;;;;5112687;28;20023;-63
2023/04/27 11:08:05;;;;;;;8.85;5.10;;;;;;;;;;5114685;28;20032;-65
2023/04/27 11:10:31;;;;;;;11.30;5.00;;;;;;;;;;5114913;28;20031;-63
2023/04/27 11:12:57;;;;;;;13.23;5.22;;;;;;;;;;5114267;28;20047;-63
2023/04/27 11:15:23;;;;;;;10.73;5.13;;;;;;;;;;5114449;28;20036;-62
2023/04/27 11:17:50;;;;;;;9.93;4.93;;;;;;;;;;5114237;28;20023;-63
2023/04/27 11:20:24;;;;;;;9.10;4.75;;;;;;;;;;5112839;28;20031;-63
2023/04/27 11:22:50;;;;;;;10.90;4.82;;;;;;;;;;5113683;28;20088;-62
2023/04/27 11:25:16;;;;;;;9.90;5.32;;;;;;;;;;5114216;28;20150;-63
2023/04/27 11:27:44;;;;;;;9.20;5.05;;;;;;;;;;5113953;28;20028;-63
2023/04/27 11:30:20;;;;;;;10.25;5.10;;;;;;;;;;5114164;28;20038;-62
2023/04/27 11:32:47;;;;;;;10.25;4.88;;;;;;;;;;5113773;28;20421;-62
2023/04/27 11:35:13;;;;;;;11.48;5.25;;;;;;;;;;5114231;28;20032;-63
2023/04/27 11:37:39;;;;;;;8.88;4.72;;;;;;;;;;5113808;28;20046;-63
2023/04/27 11:40:05;;;;;;;8.85;4.93;;;;;;;;;;5113993;28;20019;-63
2023/04/27 11:42:31;;;;;;;9.80;5.70;;;;;;;;;;5114193;28;20024;-65
2023/04/27 11:45:00;;;;;;;8.80;4.75;;;;;;;;;;5113508;28;20051;-63
2023/04/27 11:47:27;;;;;;;15.70;4.85;;;;;;;;;;5113752;28;20020;-63
2023/04/27 11:49:55;;;;;;;10.23;5.72;;;;;;;;;;5113580;28;20767;-63
2023/04/27 11:52:21;;;;;;;7.78;4.32;;;;;;;;;;5113713;28;20035;-62
2023/04/27 11:54:48;;;;;;;9.07;5.38;;;;;;;;;;5113458;28;20110;-63
2023/04/27 11:57:14;;;;;;;10.82;5.55;;;;;;;;;;5113507;28;20484;-62
2023/04/27 11:59:41;;;;;;;9.18;4.93;;;;;;;;;;5113376;28;20051;-62
2023/04/27 12:02:07;;;;;;;7.78;4.97;;;;;;;;;;5113476;28;20509;-62
2023/04/27 12:04:33;;;;;;;7.53;4.43;;;;;;;;;;5113304;28;20024;-62
2023/04/27 12:07:03;;;;;;;8.25;5.03;;;;;;;;;;5113737;28;20026;-62
2023/04/27 12:09:29;;;;;;;9.13;5.25;;;;;;;;;;5113675;28;20126;-65
2023/04/27 12:11:55;;;;;;;10.75;4.93;;;;;;;;;;5113041;28;20051;-62
2023/04/27 12:14:21;;;;;;;11.25;5.03;;;;;;;;;;5113154;28;20032;-63
2023/04/27 12:16:47;;;;;;;9.35;5.30;;;;;;;;;;5112356;28;20026;-63
2023/04/27 12:19:13;;;;;;;8.27;4.57;;;;;;;;;;5113161;28;20035;-62
2023/04/27 12:21:39;;;;;;;6.28;4.20;;;;;;;;;;5112649;28;20048;-63
2023/04/27 12:24:05;;;;;;;7.18;4.63;;;;;;;;;;5113077;28;20059;-63
2023/04/27 12:26:31;;;;;;;6.57;4.40;;;;;;;;;;5111765;28;20026;-63
2023/04/27 12:28:58;;;;;;;6.28;4.63;;;;;;;;;;5113008;28;20051;-61
2023/04/27 12:31:24;;;;;;;9.57;4.78;;;;;;;;;;5112920;28;20041;-65
2023/04/27 12:33:50;;;;;;;9.63;4.85;;;;;;;;;;5112904;28;20053;-70
2023/04/27 12:36:17;;;;;;;6.97;4.00;;;;;;;;;;5112813;28;20023;-63
2023/04/27 12:38:43;;;;;;;9.55;4.40;;;;;;;;;;5112607;28;20043;-62
2023/04/27 12:41:09;;;;;;;9.45;5.07;;;;;;;;;;5112777;28;20451;-62
2023/04/27 12:43:36;;;;;;;10.32;4.72;;;;;;;;;;5112187;28;20024;-62
2023/04/27 12:46:02;;;;;;;8.73;4.63;;;;;;;;;;5113169;28;20054;-63
2023/04/27 12:48:28;;;;;;;8.65;4.50;;;;;;;;;;5112657;28;20035;-62
2023/04/27 12:50:54;;;;;;;6.55;4.07;;;;;;;;;;5112170;28;20463;-62
2023/04/27 12:53:20;;;;;;;9.05;4.95;;;;;;;;;;5112430;28;20368;-62
2023/04/27 12:55:46;;;;;;;8.32;4.35;;;;;;;;;;5112323;28;20031;-62
2023/04/27 12:58:12;;;;;;;8.05;3.95;;;;;;;;;;5112457;28;20031;-65
2023/04/27 13:00:38;;;;;;;6.45;4.68;;;;;;;;;;5112060;28;20452;-66
2023/04/27 13:03:05;;;;;;;6.28;4.13;;;;;;;;;;5112109;28;20031;-67
2023/04/27 13:05:31;;;;;;;8.02;4.68;;;;;;;;;;5112459;28;20016;-66
2023/04/27 13:07:57;;;;;;;6.80;4.22;;;;;;;;;;5111976;28;20111;-62
2023/04/27 13:10:23;;;;;;;6.57;4.45;;;;;;;;;;5112269;28;20100;-63
2023/04/27 13:12:49;;;;;;;6.40;3.97;;;;;;;;;;5111766;28;20020;-62
2023/04/27 13:15:15;;;;;;;7.05;4.22;;;;;;;;;;5111900;28;20027;-62
2023/04/27 13:17:41;;;;;;;7.03;4.55;;;;;;;;;;5111987;27;20384;-63
2023/04/27 13:20:08;;;;;;;7.53;4.30;;;;;;;;;;5111749;28;20034;-62
2023/04/27 13:22:34;;;;;;;7.70;4.18;;;;;;;;;;5111669;28;20115;-63
2023/04/27 13:25:00;;;;;;;8.65;4.65;;;;;;;;;;5112091;28;20055;-65
2023/04/27 13:27:27;;;;;;;9.05;4.75;;;;;;;;;;5111763;28;20027;-62
2023/04/27 13:29:53;;;;;;;6.45;4.43;;;;;;;;;;5110898;28;20082;-62
2023/04/27 13:32:19;;;;;;;7.03;4.88;;;;;;;;;;5111457;28;20032;-62
2023/04/27 13:34:45;;;;;;;6.38;4.38;;;;;;;;;;5111277;28;20546;-62
2023/04/27 13:37:11;;;;;;;8.45;5.32;;;;;;;;;;5111593;28;20072;-63
2023/04/27 13:39:37;;;;;;;8.82;4.57;;;;;;;;;;5111672;28;20027;-62
2023/04/27 13:42:03;;;;;;;6.72;4.47;;;;;;;;;;5111513;28;20023;-62
2023/04/27 13:44:30;;;;;;;6.85;3.95;;;;;;;;;;5112195;28;20034;-63
2023/04/27 13:46:56;;;;;;;7.00;4.32;;;;;;;;;;5111370;28;20107;-63
2023/04/27 13:49:22;;;;;;;7.03;4.80;;;;;;;;;;5111202;28;20108;-62
2023/04/27 13:51:48;;;;;;;5.85;4.50;;;;;;;;;;5111396;28;20471;-65
2023/04/27 13:54:14;;;;;;;6.30;4.60;;;;;;;;;;5111390;28;20106;-63
2023/04/27 13:56:40;;;;;;;7.53;4.88;;;;;;;;;;5111228;28;20065;-63
2023/04/27 13:59:09;;;;;;;6.00;4.57;;;;;;;;;;5111428;28;20465;-62
2023/04/27 14:01:36;;;;;;;6.75;5.43;;;;;;;;;;5111157;28;20019;-62
2023/04/27 14:04:02;;;;;;;6.93;4.78;;;;;;;;;;5111658;28;20457;-62
2023/04/27 14:06:28;;;;;;;8.02;5.80;;;;;;;;;;5111715;28;20031;-62
2023/04/27 14:08:54;;;;;;;7.78;5.63;;;;;;;;;;5110870;28;20039;-63
2023/04/27 14:11:20;;;;;;;7.28;5.30;;;;;;;;;;5111377;28;20026;-62
2023/04/27 14:13:46;;;;;;;5.88;4.45;;;;;;;;;;5111123;28;20384;-62
2023/04/27 14:16:12;;;;;;;9.38;4.88;;;;;;;;;;5111565;28;20450;-62
2023/04/27 14:18:38;;;;;;;7.97;5.50;;;;;;;;;;5111056;28;20059;-63
2023/04/27 14:21:04;;;;;;;7.70;5.20;;;;;;;;;;5111159;28;20059;-64
2023/04/27 14:23:30;;;;;;;6.05;4.57;;;;;;;;;;5111472;28;20026;-63
2023/04/27 14:25:56;;;;;;;9.38;5.60;;;;;;;;;;5111012;28;20020;-62
2023/04/27 14:28:22;;;;;;;8.07;5.13;;;;;;;;;;5111271;28;20520;-62
2023/04/27 14:30:48;;;;;;;6.63;4.85;;;;;;;;;;5111105;28;20050;-63
2023/04/27 14:33:15;;;;;;;7.15;5.05;;;;;;;;;;5111275;28;20455;-62
2023/04/27 14:35:40;;;;;;;7.13;5.45;;;;;;;;;;5110946;28;20035;-63